Time;durP1;ratioP1;P1;durP2;ratioP2;P2;SDS_P1;SDS_P2;PMS_P1;PMS_P2;Temp;Humidity;BMP_temperature;BMP_pressure;BME280_temperature;BME280_humidity;BME280_pressure;Samples;Min_cycle;Max_cycle;Signal;HPM_P1;HPM_P2
2022/04/24 00:01:38;;;;;;;;;;;;;;;;;;5073558;28;19928;-77
2022/04/24 00:04:05;;;;;;;;;;;;;;;;;;5072752;28;19935;-77
2022/04/24 00:06:32;;;;;;;;;;;;;;;;;;5072962;28;19969;-77
2022/04/24 00:08:58;;;;;;;;;;;;;;;;;;5072918;28;19931;-77
2022/04/24 00:11:25;;;;;;;;;;;;;;;;;;5072818;28;20310;-77
2022/04/24 00:13:51;;;;;;;;;;;;;;;;;;5072588;28;19924;-77
2022/04/24 00:16:17;;;;;;;;;;;;;;;;;;5072832;28;19974;-77
2022/04/24 00:18:43;;;;;;;;;;;;;;;;;;5071905;28;20570;-77
2022/04/24 00:21:09;;;;;;;;;;;;;;;;;;5072863;28;19932;-77
2022/04/24 00:23:35;;;;;;;;;;;;;;;;;;5077838;28;20473;-77
2022/04/24 00:26:01;;;;;;;;;;;;;;;;;;5093008;28;19924;-77
2022/04/24 00:28:27;;;;;;;;;;;;;;;;;;5077229;28;20415;-79
2022/04/24 00:30:53;;;;;;;;;;;;;;;;;;5105489;22;20327;-78
2022/04/24 00:33:19;;;;;;;;;;;;;;;;;;5065036;28;19925;-78
2022/04/24 00:35:46;;;;;;;;;;;;;;;;;;5053065;28;20257;-78
2022/04/24 00:38:12;;;;;;;;;;;;;;;;;;5055512;28;19932;-78
2022/04/24 00:40:38;;;;;;;;;;;;;;;;;;5069542;28;19933;-78
2022/04/24 00:43:04;;;;;;;;;;;;;;;;;;5051952;28;19971;-77
2022/04/24 00:45:30;;;;;;;;;;;;;;;;;;5053761;28;19924;-77
2022/04/24 00:47:56;;;;;;;;;;;;;;;;;;5060864;28;19983;-78
2022/04/24 00:50:22;;;;;;;;;;;;;;;;;;5052420;28;19925;-77
2022/04/24 00:52:49;;;;;;;;;;;;;;;;;;5035236;28;19932;-77
2022/04/24 00:55:15;;;;;;;;;;;;;;;;;;5051826;28;19925;-78
2022/04/24 00:57:41;;;;;;;;;;;;;;;;;;5052459;28;19925;-77
2022/04/24 01:00:08;;;;;;;;;;;;;;;;;;5052211;28;19974;-78
2022/04/24 01:02:34;;;;;;;;;;;;;;;;;;5052445;28;19981;-77
2022/04/24 01:05:00;;;;;;;;;;;;;;;;;;5065012;28;20364;-77
2022/04/24 01:07:26;;;;;;;;;;;;;;;;;;5066088;28;20375;-77
2022/04/24 01:09:52;;;;;;;;;;;;;;;;;;5072079;28;19925;-78
2022/04/24 01:12:18;;;;;;;;;;;;;;;;;;5060964;28;19974;-79
2022/04/24 01:14:45;;;;;;;;;;;;;;;;;;5051630;28;19982;-78
2022/04/24 01:17:11;;;;;;;;;;;;;;;;;;5052350;28;19970;-77
2022/04/24 01:19:37;;;;;;;;;;;;;;;;;;5052387;28;19925;-75
2022/04/24 01:22:03;;;;;;;;;;;;;;;;;;5052473;28;19925;-77
2022/04/24 01:24:29;;;;;;;;;;;;;;;;;;5051428;28;19983;-77
2022/04/24 01:26:56;;;;;;;;;;;;;;;;;;5059647;28;19946;-77
2022/04/24 01:29:22;;;;;;;;;;;;;;;;;;5073297;28;19947;-77
2022/04/24 01:31:48;;;;;;;;;;;;;;;;;;5069151;28;19925;-77
2022/04/24 01:34:14;;;;;;;;;;;;;;;;;;5054867;28;19972;-77
2022/04/24 01:36:40;;;;;;;;;;;;;;;;;;5059429;28;19929;-77
2022/04/24 01:39:07;;;;;;;;;;;;;;;;;;5066524;28;20395;-77
2022/04/24 01:41:33;;;;;;;;;;;;;;;;;;5073385;28;19985;-75
2022/04/24 01:43:59;;;;;;;;;;;;;;;;;;5074754;28;20461;-75
2022/04/24 01:46:25;;;;;;;;;;;;;;;;;;5059258;28;19925;-77
2022/04/24 01:48:51;;;;;;;;;;;;;;;;;;5035063;28;20388;-77
2022/04/24 01:51:17;;;;;;;;;;;;;;;;;;5038096;28;19978;-77
2022/04/24 01:53:43;;;;;;;;;;;;;;;;;;5056908;28;19925;-77
2022/04/24 01:56:09;;;;;;;;;;;;;;;;;;5075201;28;19951;-77
2022/04/24 01:58:35;;;;;;;;;;;;;;;;;;5074898;28;19974;-77
2022/04/24 02:01:01;;;;;;;;;;;;;;;;;;5054746;28;19987;-77
2022/04/24 02:03:27;;;;;;;;;;;;;;;;;;5054719;28;19929;-77
2022/04/24 02:05:53;;;;;;;;;;;;;;;;;;5054722;28;20383;-77
2022/04/24 02:08:20;;;;;;;;;;;;;;;;;;5055056;28;19970;-77
2022/04/24 02:10:46;;;;;;;;;;;;;;;;;;5054792;28;20334;-77
2022/04/24 02:13:12;;;;;;;;;;;;;;;;;;5064241;28;19986;-75
2022/04/24 02:15:38;;;;;;;;;;;;;;;;;;5054491;28;19925;-77
2022/04/24 02:18:04;;;;;;;;;;;;;;;;;;5054522;28;20384;-78
2022/04/24 02:20:30;;;;;;;;;;;;;;;;;;5054791;28;19924;-78
2022/04/24 02:22:57;;;;;;;;;;;;;;;;;;5066317;28;19951;-78
2022/04/24 02:25:23;;;;;;;;;;;;;;;;;;5074541;28;20450;-77
2022/04/24 02:27:49;;;;;;;;;;;;;;;;;;5062448;28;19929;-77
2022/04/24 02:30:15;;;;;;;;;;;;;;;;;;5054042;28;20395;-77
2022/04/24 02:32:41;;;;;;;;;;;;;;;;;;5053899;28;19986;-77
2022/04/24 02:35:08;;;;;;;;;;;;;;;;;;5054537;28;19924;-77
2022/04/24 02:37:34;;;;;;;;;;;;;;;;;;5053968;28;20375;-77
2022/04/24 02:40:00;;;;;;;;;;;;;;;;;;5054251;28;19925;-77
2022/04/24 02:42:26;;;;;;;;;;;;;;;;;;5052632;28;20380;-78
2022/04/24 02:44:52;;;;;;;;;;;;;;;;;;5073327;28;19928;-77
2022/04/24 02:47:18;;;;;;;;;;;;;;;;;;5074278;28;19924;-77
2022/04/24 02:49:44;;;;;;;;;;;;;;;;;;5073793;28;19932;-77
2022/04/24 02:52:10;;;;;;;;;;;;;;;;;;5063128;28;19924;-77
2022/04/24 02:54:36;;;;;;;;;;;;;;;;;;5053045;28;19925;-78
2022/04/24 02:57:02;;;;;;;;;;;;;;;;;;5034141;28;19971;-77
2022/04/24 02:59:29;;;;;;;;;;;;;;;;;;5039809;28;20450;-78
2022/04/24 03:01:55;;;;;;;;;;;;;;;;;;5053903;28;19935;-77
2022/04/24 03:04:21;;;;;;;;;;;;;;;;;;5053230;28;20412;-77
2022/04/24 03:06:47;;;;;;;;;;;;;;;;;;5053762;28;19982;-77
2022/04/24 03:09:13;;;;;;;;;;;;;;;;;;5053818;28;20481;-77
2022/04/24 03:11:39;;;;;;;;;;;;;;;;;;5053363;28;19928;-77
2022/04/24 03:14:05;;;;;;;;;;;;;;;;;;5052960;28;20737;-78
2022/04/24 03:16:32;;;;;;;;;;;;;;;;;;5053593;28;19925;-77
2022/04/24 03:18:58;;;;;;;;;;;;;;;;;;5053851;28;19994;-77
2022/04/24 03:21:24;;;;;;;;;;;;;;;;;;5071666;28;19978;-77
2022/04/24 03:23:50;;;;;;;;;;;;;;;;;;5068161;28;20445;-77
2022/04/24 03:26:16;;;;;;;;;;;;;;;;;;5053666;28;19970;-78
2022/04/24 03:28:43;;;;;;;;;;;;;;;;;;5053442;28;19970;-78
2022/04/24 03:31:10;;;;;;;;;;;;;;;;;;5052896;28;19928;-77
2022/04/24 03:33:36;;;;;;;;;;;;;;;;;;5052967;28;19924;-78
2022/04/24 03:36:02;;;;;;;;;;;;;;;;;;5053260;28;19925;-77
2022/04/24 03:38:28;;;;;;;;;;;;;;;;;;5053367;28;19929;-77
2022/04/24 03:40:54;;;;;;;;;;;;;;;;;;5052855;28;19924;-77
2022/04/24 03:43:20;;;;;;;;;;;;;;;;;;5052745;28;19928;-77
2022/04/24 03:45:46;;;;;;;;;;;;;;;;;;5053538;28;19971;-77
2022/04/24 03:48:12;;;;;;;;;;;;;;;;;;5039596;28;20535;-77
2022/04/24 03:50:38;;;;;;;;;;;;;;;;;;5035497;28;20578;-78
2022/04/24 03:53:04;;;;;;;;;;;;;;;;;;5070776;28;19925;-77
2022/04/24 03:55:31;;;;;;;;;;;;;;;;;;5066536;28;19924;-78
2022/04/24 03:57:57;;;;;;;;;;;;;;;;;;5052939;28;19940;-78
2022/04/24 04:00:23;;;;;;;;;;;;;;;;;;5053072;28;19973;-78
2022/04/24 04:02:49;;;;;;;;;;;;;;;;;;5052282;28;19978;-78
2022/04/24 04:05:16;;;;;;;;;;;;;;;;;;5044890;28;19983;-78
2022/04/24 04:07:42;;;;;;;;;;;;;;;;;;5032763;28;20384;-77
2022/04/24 04:10:08;;;;;;;;;;;;;;;;;;5033721;28;19925;-77
2022/04/24 04:12:34;;;;;;;;;;;;;;;;;;5052319;28;19924;-77
2022/04/24 04:15:00;;;;;;;;;;;;;;;;;;5052645;28;19983;-77
2022/04/24 04:17:26;;;;;;;;;;;;;;;;;;5052614;28;19932;-77
2022/04/24 04:19:52;;;;;;;;;;;;;;;;;;5052081;28;19925;-77
2022/04/24 04:22:19;;;;;;;;;;;;;;;;;;5052507;28;19928;-77
2022/04/24 04:24:45;;;;;;;;;;;;;;;;;;5051787;28;19928;-77
2022/04/24 04:27:11;;;;;;;;;;;;;;;;;;5052580;28;19925;-77
2022/04/24 04:29:37;;;;;;;;;;;;;;;;;;5052088;28;20380;-77
2022/04/24 04:32:04;;;;;;;;;;;;;;;;;;5052063;28;19967;-77
2022/04/24 04:34:30;;;;;;;;;;;;;;;;;;5052019;28;19928;-78
2022/04/24 04:36:56;;;;;;;;;;;;;;;;;;5064378;28;20019;-78
2022/04/24 04:39:22;;;;;;;;;;;;;;;;;;5072455;28;19978;-77
2022/04/24 04:41:48;;;;;;;;;;;;;;;;;;5071778;28;19977;-77
2022/04/24 04:44:14;;;;;;;;;;;;;;;;;;5071976;28;19925;-77
2022/04/24 04:46:40;;;;;;;;;;;;;;;;;;5071122;28;19928;-78
2022/04/24 04:49:06;;;;;;;;;;;;;;;;;;5072373;28;19928;-78
2022/04/24 04:51:33;;;;;;;;;;;;;;;;;;5065395;28;19951;-77
2022/04/24 04:53:59;;;;;;;;;;;;;;;;;;5051704;28;19925;-77
2022/04/24 04:56:25;;;;;;;;;;;;;;;;;;5051845;28;19925;-77
2022/04/24 04:58:51;;;;;;;;;;;;;;;;;;5051803;28;20384;-77
2022/04/24 05:01:17;;;;;;;;;;;;;;;;;;5051972;28;19924;-77
2022/04/24 05:03:43;;;;;;;;;;;;;;;;;;5052352;28;20334;-77
2022/04/24 05:06:09;;;;;;;;;;;;;;;;;;5057306;28;19979;-77
2022/04/24 05:08:35;;;;;;;;;;;;;;;;;;5075978;28;20325;-77
2022/04/24 05:11:01;;;;;;;;;;;;;;;;;;5075918;28;19977;-77
2022/04/24 05:13:27;;;;;;;;;;;;;;;;;;5055504;28;20269;-77
2022/04/24 05:15:53;;;;;;;;;;;;;;;;;;5055855;28;19978;-77
2022/04/24 05:18:19;;;;;;;;;;;;;;;;;;5055648;28;20380;-77
2022/04/24 05:20:46;;;;;;;;;;;;;;;;;;5055451;28;20400;-77
2022/04/24 05:23:12;;;;;;;;;;;;;;;;;;5038487;28;19929;-77
2022/04/24 05:25:38;;;;;;;;;;;;;;;;;;5035633;28;20380;-77
2022/04/24 05:28:04;;;;;;;;;;;;;;;;;;5065469;28;19924;-77
2022/04/24 05:30:30;;;;;;;;;;;;;;;;;;5075307;28;19925;-77
2022/04/24 05:32:56;;;;;;;;;;;;;;;;;;5075046;28;19924;-77
2022/04/24 05:35:22;;;;;;;;;;;;;;;;;;5075632;28;19924;-77
2022/04/24 05:37:48;;;;;;;;;;;;;;;;;;5075358;28;19946;-77
2022/04/24 05:40:14;;;;;;;;;;;;;;;;;;5075464;28;19925;-77
2022/04/24 05:42:40;;;;;;;;;;;;;;;;;;5074849;28;19924;-77
2022/04/24 05:45:09;;;;;;;;;;;;;;;;;;5073240;28;20437;-77
2022/04/24 05:47:35;;;;;;;;;;;;;;;;;;5054747;28;20388;-77
2022/04/24 05:50:01;;;;;;;;;;;;;;;;;;5055428;28;20395;-78
2022/04/24 05:52:27;;;;;;;;;;;;;;;;;;5055100;28;19995;-78
2022/04/24 05:54:53;;;;;;;;;;;;;;;;;;5057004;28;19925;-78
2022/04/24 05:57:20;;;;;;;;;;;;;;;;;;5056063;28;19940;-77
2022/04/24 05:59:46;;;;;;;;;;;;;;;;;;5056034;28;19951;-77
2022/04/24 06:02:12;;;;;;;;;;;;;;;;;;5065104;28;19935;-78
2022/04/24 06:04:38;;;;;;;;;;;;;;;;;;5075758;28;20457;-78
2022/04/24 06:07:04;;;;;;;;;;;;;;;;;;5075180;28;19970;-75
2022/04/24 06:09:30;;;;;;;;;;;;;;;;;;5074943;28;19924;-74
2022/04/24 06:11:58;;;;;;;;;;;;;;;;;;5074705;28;19925;-74
2022/04/24 06:14:24;;;;;;;;;;;;;;;;;;5072240;28;19924;-74
2022/04/24 06:16:50;;;;;;;;;;;;;;;;;;5053731;28;19985;-75
2022/04/24 06:19:16;;;;;;;;;;;;;;;;;;5054619;28;19978;-75
2022/04/24 06:21:42;;;;;;;;;;;;;;;;;;5054240;28;20339;-74
2022/04/24 06:24:08;;;;;;;;;;;;;;;;;;5062224;28;19924;-74
2022/04/24 06:26:34;;;;;;;;;;;;;;;;;;5055286;28;19925;-75
2022/04/24 06:29:01;;;;;;;;;;;;;;;;;;5054643;28;19925;-74
2022/04/24 06:31:27;;;;;;;;;;;;;;;;;;5076087;22;19971;-77
2022/04/24 06:33:53;;;;;;;;;;;;;;;;;;5049493;28;19924;-77
2022/04/24 06:36:19;;;;;;;;;;;;;;;;;;5046127;28;19925;-77
2022/04/24 06:38:45;;;;;;;;;;;;;;;;;;5054339;28;19925;-77
2022/04/24 06:41:11;;;;;;;;;;;;;;;;;;5068557;28;20379;-78
2022/04/24 06:43:38;;;;;;;;;;;;;;;;;;5073878;28;19975;-77
2022/04/24 06:46:04;;;;;;;;;;;;;;;;;;5056894;28;20453;-77
2022/04/24 06:48:30;;;;;;;;;;;;;;;;;;5074135;28;19970;-77
2022/04/24 06:50:56;;;;;;;;;;;;;;;;;;5073825;28;19924;-78
2022/04/24 06:53:23;;;;;;;;;;;;;;;;;;5073635;28;19925;-78
2022/04/24 06:55:49;;;;;;;;;;;;;;;;;;5074107;28;19928;-77
2022/04/24 06:58:15;;;;;;;;;;;;;;;;;;5071051;28;19932;-77
2022/04/24 07:00:41;;;;;;;;;;;;;;;;;;5057837;28;19924;-77
2022/04/24 07:03:07;;;;;;;;;;;;;;;;;;5064932;28;19944;-78
2022/04/24 07:05:33;;;;;;;;;;;;;;;;;;5034001;28;19925;-79
2022/04/24 07:07:59;;;;;;;;;;;;;;;;;;5033908;28;19925;-78
2022/04/24 07:10:25;;;;;;;;;;;;;;;;;;5033891;28;19926;-78
2022/04/24 07:12:51;;;;;;;;;;;;;;;;;;5045798;28;20287;-77
2022/04/24 07:15:18;;;;;;;;;;;;;;;;;;5054204;28;19928;-78
2022/04/24 07:17:44;;;;;;;;;;;;;;;;;;5061302;28;19968;-77
2022/04/24 07:20:10;;;;;;;;;;;;;;;;;;5052846;28;19924;-77
2022/04/24 07:22:36;;;;;;;;;;;;;;;;;;5052628;28;19978;-77
2022/04/24 07:25:02;;;;;;;;;;;;;;;;;;5053553;28;19925;-77
2022/04/24 07:27:28;;;;;;;;;;;;;;;;;;5060288;28;19925;-77
2022/04/24 07:29:54;;;;;;;;;;;;;;;;;;5073229;28;19993;-77
2022/04/24 07:32:20;;;;;;;;;;;;;;;;;;5066377;28;19924;-77
2022/04/24 07:34:47;;;;;;;;;;;;;;;;;;5052689;28;19925;-77
2022/04/24 07:37:13;;;;;;;;;;;;;;;;;;5053150;28;19971;-76
2022/04/24 07:39:39;;;;;;;;;;;;;;;;;;5053032;28;19928;-77
2022/04/24 07:42:05;;;;;;;;;;;;;;;;;;5054315;28;19925;-77
2022/04/24 07:44:31;;;;;;;;;;;;;;;;;;5032721;28;19925;-77
2022/04/24 07:46:58;;;;;;;;;;;;;;;;;;5033206;28;19925;-77
2022/04/24 07:49:24;;;;;;;;;;;;;;;;;;5033119;28;20008;-77
2022/04/24 07:51:50;;;;;;;;;;;;;;;;;;5032967;28;19979;-77
2022/04/24 07:54:16;;;;;;;;;;;;;;;;;;5032302;28;20339;-77
2022/04/24 07:56:43;;;;;;;;;;;;;;;;;;5048148;28;19925;-77
2022/04/24 07:59:09;;;;;;;;;;;;;;;;;;5052879;28;19924;-77
2022/04/24 08:01:35;;;;;;;;;;;;;;;;;;5065379;28;19925;-77
2022/04/24 08:04:01;;;;;;;;;;;;;;;;;;5070044;28;20001;-76
2022/04/24 08:06:27;;;;;;;;;;;;;;;;;;5068406;28;19925;-77
2022/04/24 08:08:54;;;;;;;;;;;;;;;;;;5067659;28;19925;-77
2022/04/24 08:11:20;;;;;;;;;;;;;;;;;;5072125;28;19928;-77
2022/04/24 08:13:46;;;;;;;;;;;;;;;;;;5072084;28;20037;-77
2022/04/24 08:16:12;;;;;;;;;;;;;;;;;;5066740;28;19954;-77
2022/04/24 08:18:38;;;;;;;;;;;;;;;;;;5051994;28;19925;-77
2022/04/24 08:21:04;;;;;;;;;;;;;;;;;;5052412;28;20265;-77
2022/04/24 08:23:30;;;;;;;;;;;;;;;;;;5052628;28;19928;-76
2022/04/24 08:25:56;;;;;;;;;;;;;;;;;;5052868;28;19982;-76
2022/04/24 08:28:25;;;;;;;;;;;;;;;;;;5055253;28;20429;-75
2022/04/24 08:30:51;;;;;;;;;;;;;;;;;;5072307;28;20464;-76
2022/04/24 08:33:18;;;;;;;;;;;;;;;;;;5072729;28;19964;-76
2022/04/24 08:35:45;;;;;;;;;;;;;;;;;;5073154;28;20421;-76
2022/04/24 08:38:11;;;;;;;;;;;;;;;;;;5073205;28;20011;-76
2022/04/24 08:40:37;;;;;;;;;;;;;;;;;;5070362;28;20061;-76
2022/04/24 08:43:03;;;;;;;;;;;;;;;;;;5065729;28;19932;-76
2022/04/24 08:45:29;;;;;;;;;;;;;;;;;;5075244;28;19924;-76
2022/04/24 08:47:56;;;;;;;;;;;;;;;;;;5076914;28;20387;-76
2022/04/24 08:50:22;;;;;;;;;;;;;;;;;;5075827;28;19925;-77
2022/04/24 08:52:48;;;;;;;;;;;;;;;;;;5042177;28;20293;-76
2022/04/24 08:55:14;;;;;;;;;;;;;;;;;;5051143;28;19951;-77
2022/04/24 08:57:40;;;;;;;;;;;;;;;;;;5055392;28;19924;-76
2022/04/24 09:00:07;;;;;;;;;;;;;;;;;;5055533;28;19924;-77
2022/04/24 09:02:33;;;;;;;;;;;;;;;;;;5061308;28;19971;-77
2022/04/24 09:04:59;;;;;;;;;;;;;;;;;;5055080;28;20718;-77
2022/04/24 09:07:25;;;;;;;;;;;;;;;;;;5056140;28;19925;-77
2022/04/24 09:09:51;;;;;;;;;;;;;;;;;;5055693;28;20481;-77
2022/04/24 09:12:17;;;;;;;;;;;;;;;;;;5055456;28;19925;-77
2022/04/24 09:14:43;;;;;;;;;;;;;;;;;;5055325;28;20388;-77
2022/04/24 09:17:09;;;;;;;;;;;;;;;;;;5055609;28;19925;-77
2022/04/24 09:19:36;;;;;;;;;;;;;;;;;;5056919;28;19925;-77
2022/04/24 09:22:03;;;;;;;;;;;;;;;;;;5055254;28;19939;-76
2022/04/24 09:24:30;;;;;;;;;;;;;;;;;;5054571;28;20343;-77
2022/04/24 09:26:56;;;;;;;;;;;;;;;;;;5055638;28;19931;-77
2022/04/24 09:29:22;;;;;;;;;;;;;;;;;;5055819;28;19925;-77
2022/04/24 09:31:48;;;;;;;;;;;;;;;;;;5067529;28;20299;-77
2022/04/24 09:34:14;;;;;;;;;;;;;;;;;;5065262;28;19925;-77
2022/04/24 09:36:40;;;;;;;;;;;;;;;;;;5056064;28;20354;-77
2022/04/24 09:39:06;;;;;;;;;;;;;;;;;;5055326;28;20395;-77
2022/04/24 09:41:33;;;;;;;;;;;;;;;;;;5056181;28;19974;-78
2022/04/24 09:43:59;;;;;;;;;;;;;;;;;;5070552;28;20376;-76
2022/04/24 09:46:26;;;;;;;;;;;;;;;;;;5071549;28;19982;-76
2022/04/24 09:48:52;;;;;;;;;;;;;;;;;;5054582;28;20446;-76
2022/04/24 09:51:18;;;;;;;;;;;;;;;;;;5054516;28;19924;-76
2022/04/24 09:53:44;;;;;;;;;;;;;;;;;;5066377;28;19978;-77
2022/04/24 09:56:11;;;;;;;;;;;;;;;;;;5053956;28;19929;-76
2022/04/24 09:58:37;;;;;;;;;;;;;;;;;;5056279;28;19928;-76
2022/04/24 10:01:04;;;;;;;;;;;;;;;;;;5054149;28;20429;-75
2022/04/24 10:03:30;;;;;;;;;;;;;;;;;;5052110;28;20288;-76
2022/04/24 10:05:56;;;;;;;;;;;;;;;;;;5053897;28;19929;-76
2022/04/24 10:08:22;;;;;;;;;;;;;;;;;;5054174;28;20373;-76
2022/04/24 10:10:48;;;;;;;;;;;;;;;;;;5054587;28;19970;-76
2022/04/24 10:13:14;;;;;;;;;;;;;;;;;;5053689;28;20308;-76
2022/04/24 10:15:40;;;;;;;;;;;;;;;;;;5054595;28;19925;-76
2022/04/24 10:18:06;;;;;;;;;;;;;;;;;;5054602;28;19925;-76
2022/04/24 10:20:32;;;;;;;;;;;;;;;;;;5052665;28;19982;-76
2022/04/24 10:22:58;;;;;;;;;;;;;;;;;;5051401;28;20010;-76
2022/04/24 10:25:24;;;;;;;;;;;;;;;;;;5054214;28;19995;-76
2022/04/24 10:27:50;;;;;;;;;;;;;;;;;;5054261;28;19951;-76
2022/04/24 10:30:17;;;;;;;;;;;;;;;;;;5053649;28;20469;-76
2022/04/24 10:32:45;;;;;;;;;;;;;;;;;;5052860;28;20276;-76
2022/04/24 10:35:11;;;;;;;;;;;;;;;;;;5054736;28;20023;-76
2022/04/24 10:37:37;;;;;;;;;;;;;;;;;;5054001;28;20354;-75
2022/04/24 10:40:04;;;;;;;;;;;;;;;;;;5054766;28;19925;-76
2022/04/24 10:42:31;;;;;;;;;;;;;;;;;;5060158;28;19924;-76
2022/04/24 10:44:57;;;;;;;;;;;;;;;;;;5064414;28;19925;-76
2022/04/24 10:47:23;;;;;;;;;;;;;;;;;;5053684;28;20445;-76
2022/04/24 10:49:49;;;;;;;;;;;;;;;;;;5053711;28;19979;-76
2022/04/24 10:52:15;;;;;;;;;;;;;;;;;;5052692;28;19978;-76
2022/04/24 10:54:43;;;;;;;;;;;;;;;;;;5052868;28;19986;-76
2022/04/24 10:57:10;;;;;;;;;;;;;;;;;;5053887;28;19925;-76
2022/04/24 10:59:36;;;;;;;;;;;;;;;;;;5053311;28;19925;-76
2022/04/24 11:02:02;;;;;;;;;;;;;;;;;;5053156;28;19924;-76
2022/04/24 11:04:28;;;;;;;;;;;;;;;;;;5053058;28;19975;-76
2022/04/24 11:06:54;;;;;;;;;;;;;;;;;;5053370;28;20342;-76
2022/04/24 11:09:21;;;;;;;;;;;;;;;;;;5054432;28;19971;-76
2022/04/24 11:11:47;;;;;;;;;;;;;;;;;;5057651;28;20404;-76
2022/04/24 11:14:13;;;;;;;;;;;;;;;;;;5052986;28;19925;-76
2022/04/24 11:16:39;;;;;;;;;;;;;;;;;;5053176;28;19929;-75
2022/04/24 11:19:05;;;;;;;;;;;;;;;;;;5052900;28;19959;-76
2022/04/24 11:21:32;;;;;;;;;;;;;;;;;;5053014;28;19951;-76
2022/04/24 11:23:58;;;;;;;;;;;;;;;;;;5072411;28;20014;-76
2022/04/24 11:26:24;;;;;;;;;;;;;;;;;;5072374;28;19970;-76
2022/04/24 11:28:50;;;;;;;;;;;;;;;;;;5069171;28;20312;-76
2022/04/24 11:31:16;;;;;;;;;;;;;;;;;;5068599;28;19925;-76
2022/04/24 11:33:42;;;;;;;;;;;;;;;;;;5072364;28;19929;-75
2022/04/24 11:36:08;;;;;;;;;;;;;;;;;;5072545;28;19934;-76
2022/04/24 11:38:35;;;;;;;;;;;;;;;;;;5058597;28;20265;-76
2022/04/24 11:41:03;;;;;;;;;;;;;;;;;;5052971;28;19925;-76
2022/04/24 11:43:29;;;;;;;;;;;;;;;;;;5052262;28;19932;-76
2022/04/24 11:51:23;;;;;;;;;;;;;;;;;;5034516;28;19920;-75
2022/04/24 11:53:49;;;;;;;;;;;;;;;;;;5049801;28;20441;-76
2022/04/24 11:56:15;;;;;;;;;;;;;;;;;;5053062;28;19979;-75
2022/04/24 11:58:41;;;;;;;;;;;;;;;;;;5052557;28;19931;-75
2022/04/24 12:01:08;;;;;;;;;;;;;;;;;;5052097;28;20350;-75
2022/04/24 12:03:34;;;;;;;;;;;;;;;;;;5068734;28;19960;-75
2022/04/24 12:06:00;;;;;;;;;;;;;;;;;;5054560;28;19924;-74
2022/04/24 12:08:26;;;;;;;;;;;;;;;;;;5051792;28;19924;-76
2022/04/24 12:10:52;;;;;;;;;;;;;;;;;;5052153;28;19929;-76
2022/04/24 12:13:20;;;;;;;;;;;;;;;;;;5052101;28;19925;-75
2022/04/24 12:15:46;;;;;;;;;;;;;;;;;;5032422;28;19948;-77
2022/04/24 12:18:12;;;;;;;;;;;;;;;;;;5032929;28;19972;-76
2022/04/24 12:20:38;;;;;;;;;;;;;;;;;;5032304;28;20499;-76
2022/04/24 12:23:05;;;;;;;;;;;;;;;;;;5044702;28;19937;-76
2022/04/24 12:25:31;;;;;;;;;;;;;;;;;;5050784;28;19925;-75
2022/04/24 12:27:57;;;;;;;;;;;;;;;;;;5032381;28;20450;-76
2022/04/24 12:30:24;;;;;;;;;;;;;;;;;;5037960;28;19974;-75
2022/04/24 12:32:50;;;;;;;;;;;;;;;;;;5038330;28;19983;-76
2022/04/24 12:35:16;;;;;;;;;;;;;;;;;;5032047;28;20373;-76
2022/04/24 12:37:42;;;;;;;;;;;;;;;;;;5032536;28;19925;-76
2022/04/24 12:40:08;;;;;;;;;;;;;;;;;;5038701;28;19955;-76
2022/04/24 12:42:35;;;;;;;;;;;;;;;;;;5060126;28;19994;-76
2022/04/24 12:45:01;;;;;;;;;;;;;;;;;;5054935;28;19925;-76
2022/04/24 12:47:27;;;;;;;;;;;;;;;;;;5051139;28;19925;-76
2022/04/24 12:49:53;;;;;;;;;;;;;;;;;;5046410;28;19955;-76
2022/04/24 12:52:21;;;;;;;;;;;;;;;;;;5048692;28;19978;-77
2022/04/24 12:54:47;;;;;;;;;;;;;;;;;;5077914;22;20430;-74
2022/04/24 12:57:13;;;;;;;;;;;;;;;;;;5066182;28;19971;-74
2022/04/24 12:59:39;;;;;;;;;;;;;;;;;;5063047;28;19925;-75
2022/04/24 13:02:05;;;;;;;;;;;;;;;;;;5027806;28;19929;-74
2022/04/24 13:04:33;;;;;;;11.05;2.20;;;;;;;;;;5016503;28;19929;-75
2022/04/24 13:07:00;;;;;;;6.20;2.20;;;;;;;;;;5021687;28;20459;-79
2022/04/24 13:09:27;;;;;;;11.88;2.50;;;;;;;;;;5027393;28;20056;-78
2022/04/24 13:11:54;;;;;;;12.05;2.30;;;;;;;;;;5045903;28;20500;-79
2022/04/24 13:14:21;;;;;;;7.95;2.08;;;;;;;;;;5041324;28;20107;-78
2022/04/24 13:19:31;;;;;;;8.85;2.30;;;;;;;;;;5037919;28;20069;-79
2022/04/24 13:21:59;;;;;;;14.13;2.58;;;;;;;;;;5031921;28;20493;-79
2022/04/24 13:24:25;;;;;;;13.45;2.38;;;;;;;;;;5039571;28;20557;-74
2022/04/24 13:26:52;;;;;;;9.82;2.47;;;;;;;;;;5052726;28;20463;-74
2022/04/24 13:29:18;;;;;;;7.78;1.92;;;;;;;;;;5053535;28;20041;-74
2022/04/24 13:31:47;;;;;;;9.80;2.35;;;;;;;;;;5055226;28;20049;-74
2022/04/24 13:34:14;;;;;;;6.68;2.40;;;;;;;;;;5050565;28;20152;-74
2022/04/24 13:36:40;;;;;;;6.45;2.38;;;;;;;;;;5034502;28;20501;-74
2022/04/24 13:39:07;;;;;;;6.00;2.20;;;;;;;;;;5052236;28;20065;-74
2022/04/24 13:41:33;;;;;;;7.65;2.30;;;;;;;;;;5054749;28;20048;-74
2022/04/24 13:44:00;;;;;;;8.82;2.10;;;;;;;;;;5048868;28;20508;-74
2022/04/24 13:46:26;;;;;;;5.93;2.00;;;;;;;;;;5053843;28;20052;-74
2022/04/24 13:48:52;;;;;;;8.82;2.30;;;;;;;;;;5055671;28;20452;-77
2022/04/24 13:51:22;;;;;;;4.55;2.10;;;;;;;;;;5055091;28;20098;-77
2022/04/24 13:53:48;;;;;;;5.72;2.00;;;;;;;;;;5055088;28;20049;-76
2022/04/24 13:56:16;;;;;;;9.27;2.10;;;;;;;;;;5054692;28;20123;-79
2022/04/24 13:58:42;;;;;;;5.53;2.25;;;;;;;;;;5055681;28;20044;-77
2022/04/24 14:01:08;;;;;;;6.43;1.98;;;;;;;;;;5055151;28;20053;-77
2022/04/24 14:03:35;;;;;;;5.22;2.10;;;;;;;;;;5054430;28;20045;-77
2022/04/24 14:06:01;;;;;;;6.63;1.95;;;;;;;;;;5045261;28;20496;-77
2022/04/24 14:08:29;;;;;;;6.57;2.10;;;;;;;;;;5035125;28;20050;-77
2022/04/24 14:10:59;;;;;;;5.82;2.10;;;;;;;;;;5034724;28;20107;-77
2022/04/24 14:13:27;;;;;;;5.65;1.90;;;;;;;;;;5034823;28;20099;-77
2022/04/24 14:15:53;;;;;;;4.10;1.95;;;;;;;;;;5034640;28;20057;-77
2022/04/24 14:18:19;;;;;;;4.85;2.20;;;;;;;;;;5034653;28;20488;-77
2022/04/24 14:20:46;;;;;;;7.95;2.28;;;;;;;;;;5034176;28;20095;-77
2022/04/24 14:23:12;;;;;;;4.55;2.10;;;;;;;;;;5034329;28;20496;-77
2022/04/24 14:25:38;;;;;;;4.90;2.00;;;;;;;;;;5034520;28;20049;-77
2022/04/24 14:28:04;;;;;;;4.20;2.00;;;;;;;;;;5034243;28;20432;-76
2022/04/24 14:30:32;;;;;;;5.53;1.90;;;;;;;;;;5034280;28;20096;-77
2022/04/24 14:32:59;;;;;;;7.07;2.00;;;;;;;;;;5034537;28;20056;-77
2022/04/24 14:35:26;;;;;;;5.47;2.20;;;;;;;;;;5034436;28;20045;-76
2022/04/24 14:37:52;;;;;;;4.85;2.15;;;;;;;;;;5033730;28;20049;-77
2022/04/24 14:40:18;;;;;;;5.95;2.20;;;;;;;;;;5033834;28;20408;-77
2022/04/24 14:42:46;;;;;;;5.88;2.10;;;;;;;;;;5034209;28;20107;-77
2022/04/24 14:45:12;;;;;;;5.47;2.05;;;;;;;;;;5034155;28;20049;-77
2022/04/24 14:55:53;;;;;;;6.95;2.10;;;;;;;;;;5033547;28;20466;-76
2022/04/24 14:58:20;;;;;;;7.78;2.45;;;;;;;;;;5033855;28;20412;-77
2022/04/24 15:00:47;;;;;;;6.45;2.30;;;;;;;;;;5047072;28;20441;-77
2022/04/24 15:03:15;;;;;;;5.30;2.13;;;;;;;;;;5053731;28;20075;-77
2022/04/24 15:05:42;;;;;;;7.13;2.30;;;;;;;;;;5053420;28;20045;-77
2022/04/24 15:08:11;;;;;;;4.68;2.00;;;;;;;;;;5053803;28;20060;-77
2022/04/24 15:10:38;;;;;;;4.80;2.10;;;;;;;;;;5053460;28;20147;-77
2022/04/24 15:13:05;;;;;;;4.55;2.25;;;;;;;;;;5053506;28;20045;-78
2022/04/24 15:15:31;;;;;;;5.60;2.40;;;;;;;;;;5053854;28;20049;-77
2022/04/24 15:17:57;;;;;;;4.22;2.20;;;;;;;;;;5053450;28;20068;-77
2022/04/24 15:20:25;;;;;;;4.72;2.15;;;;;;;;;;5053002;28;20496;-77
2022/04/24 15:22:53;;;;;;;5.57;2.20;;;;;;;;;;5053184;28;20092;-76
2022/04/24 15:25:19;;;;;;;5.22;2.05;;;;;;;;;;5052740;28;20397;-77
2022/04/24 15:27:45;;;;;;;5.13;2.20;;;;;;;;;;5053456;28;20075;-77
2022/04/24 15:30:12;;;;;;;6.55;2.10;;;;;;;;;;5052992;28;20045;-77
2022/04/24 15:32:40;;;;;;;5.28;2.20;;;;;;;;;;5053104;28;20057;-77
2022/04/24 15:35:07;;;;;;;;;;;;;;;;;;5053349;28;20132;-77
2022/04/24 15:37:35;;;;;;;4.43;2.03;;;;;;;;;;5053059;28;19931;-77
2022/04/24 15:40:02;;;;;;;;;;;;;;;;;;5053297;28;20131;-77
2022/04/24 15:42:28;;;;;;;5.88;2.10;;;;;;;;;;5052951;28;19921;-77
2022/04/24 15:45:14;;;;;;;4.57;2.08;;;;;;;;;;5052900;28;20053;-76
2022/04/24 15:47:45;;;;;;;4.50;2.10;;;;;;;;;;5052942;28;20071;-77
2022/04/24 15:50:11;;;;;;;5.43;2.22;;;;;;;;;;5052876;28;20045;-77
2022/04/24 15:52:40;;;;;;;6.57;2.28;;;;;;;;;;5052735;28;20416;-77
2022/04/24 15:55:09;;;;;;;5.18;2.10;;;;;;;;;;5052538;28;20053;-77
2022/04/24 15:57:35;;;;;;;4.90;2.28;;;;;;;;;;5052720;28;20045;-77
2022/04/24 16:00:01;;;;;;;4.80;2.40;;;;;;;;;;5052270;28;20045;-77
2022/04/24 16:02:27;;;;;;;4.00;2.05;;;;;;;;;;5052315;28;20492;-77
2022/04/24 16:04:53;;;;;;;4.47;2.15;;;;;;;;;;5052553;28;20115;-77
2022/04/24 16:07:20;;;;;;;4.13;2.05;;;;;;;;;;5052506;28;20098;-77
2022/04/24 16:09:48;;;;;;;4.97;2.15;;;;;;;;;;5052526;28;20045;-78
2022/04/24 16:12:14;;;;;;;4.72;1.95;;;;;;;;;;5052570;28;20053;-77
2022/04/24 16:14:40;;;;;;;5.18;2.10;;;;;;;;;;5039034;28;20049;-77
2022/04/24 16:17:07;;;;;;;5.38;2.30;;;;;;;;;;5032332;28;20103;-77
2022/04/24 16:19:33;;;;;;;4.68;2.10;;;;;;;;;;5032114;28;20099;-76
2022/04/24 16:22:00;;;;;;;5.53;2.10;;;;;;;;;;5032226;28;20053;-77
2022/04/24 16:24:26;;;;;;;4.68;2.00;;;;;;;;;;5032390;28;20080;-77
2022/04/24 16:26:53;;;;;;;;;;;;;;;;;;5032811;28;20061;-77
2022/04/24 16:32:06;;;;;;;4.53;2.00;;;;;;;;;;5032078;28;20055;-78